createdAt,value
2023-05-10T00:00:58.318Z,50.00
2023-05-10T00:03:45.472Z,49.80
2023-05-10T00:06:33.336Z,49.90
2023-05-10T00:09:20.526Z,50.20
2023-05-10T00:12:07.612Z,51.10
2023-05-10T00:14:54.633Z,52.30
2023-05-10T00:17:41.754Z,53.20
2023-05-10T00:20:28.835Z,54.00
2023-05-10T00:23:15.971Z,54.10
2023-05-10T00:26:03.015Z,55.00
2023-05-10T00:28:50.029Z,55.30
2023-05-10T00:31:38.915Z,55.60
2023-05-10T00:34:25.990Z,56.10
2023-05-10T00:37:12.976Z,57.00
2023-05-10T00:40:00.639Z,57.10
2023-05-10T00:42:47.683Z,56.20
2023-05-10T00:45:37.280Z,57.00
2023-05-10T00:48:24.770Z,56.90
2023-05-10T00:51:11.884Z,57.30
2023-05-10T00:53:59.534Z,57.60
2023-05-10T00:56:49.778Z,57.80
2023-05-10T00:59:36.964Z,57.20
2023-05-10T01:02:24.028Z,58.10
2023-05-10T01:05:11.649Z,57.80
2023-05-10T01:07:58.827Z,59.40
2023-05-10T01:10:46.556Z,59.40
2023-05-10T01:13:43.183Z,59.30
2023-05-10T01:16:34.292Z,60.20
2023-05-10T01:19:30.469Z,59.80
2023-05-10T01:22:59.533Z,61.20
2023-05-10T01:26:29.325Z,61.00
2023-05-10T01:29:40.564Z,60.60
2023-05-10T01:32:56.715Z,60.40
2023-05-10T01:35:55.481Z,60.50
2023-05-10T01:38:51.532Z,60.80
2023-05-10T01:41:53.907Z,62.10
2023-05-10T01:44:49.682Z,62.40
2023-05-10T01:47:51.218Z,63.80
2023-05-10T01:50:46.309Z,64.60
2023-05-10T01:53:37.488Z,66.20
2023-05-10T01:56:28.879Z,67.80
2023-05-10T01:59:19.438Z,67.60
2023-05-10T02:02:07.854Z,69.20
2023-05-10T02:04:56.383Z,68.40
2023-05-10T02:07:44.516Z,68.40
2023-05-10T02:10:34.804Z,68.80
2023-05-10T02:13:23.105Z,69.00
2023-05-10T02:16:11.225Z,68.70
2023-05-10T02:19:02.317Z,70.00
2023-05-10T02:21:52.070Z,69.50
2023-05-10T02:24:40.516Z,69.50
2023-05-10T02:27:29.537Z,69.40
2023-05-10T02:30:19.202Z,69.00
2023-05-10T02:33:07.273Z,70.10
2023-05-10T02:35:55.424Z,70.80
2023-05-10T02:38:43.254Z,70.10
2023-05-10T02:41:33.206Z,70.30
2023-05-10T02:44:21.380Z,70.50
2023-05-10T02:47:08.565Z,69.70
2023-05-10T02:49:56.155Z,70.50
2023-05-10T02:52:55.129Z,70.50
2023-05-10T02:55:45.980Z,70.80
2023-05-10T02:58:33.085Z,72.00
2023-05-10T03:01:20.218Z,71.20
2023-05-10T03:04:08.174Z,71.50
2023-05-10T03:06:55.752Z,71.80
2023-05-10T03:09:43.074Z,71.40
2023-05-10T03:12:57.299Z,71.50
2023-05-10T03:15:58.527Z,71.60
2023-05-10T03:18:53.313Z,72.20
2023-05-10T03:21:44.227Z,71.20
2023-05-10T03:24:33.031Z,71.40
2023-05-10T03:27:22.648Z,71.20
2023-05-10T03:30:12.712Z,72.10
2023-05-10T03:33:08.367Z,72.20
2023-05-10T03:35:59.457Z,72.50
2023-05-10T03:38:47.206Z,72.50
2023-05-10T03:41:34.553Z,73.00
2023-05-10T03:44:21.581Z,72.90
2023-05-10T03:47:09.138Z,74.60
2023-05-10T03:49:56.615Z,75.20
2023-05-10T03:52:44.485Z,74.90
2023-05-10T03:55:35.389Z,76.40
2023-05-10T03:58:22.830Z,76.20
2023-05-10T04:01:09.856Z,76.70
2023-05-10T04:03:57.049Z,76.60
2023-05-10T04:06:44.216Z,76.80
2023-05-10T04:09:31.224Z,77.00
2023-05-10T04:12:18.238Z,77.10
2023-05-10T04:15:05.716Z,76.90
2023-05-10T04:17:52.814Z,75.50
2023-05-10T04:20:39.888Z,76.00
2023-05-10T04:23:28.148Z,77.30
2023-05-10T04:26:15.289Z,78.10
2023-05-10T04:29:02.432Z,88.10
2023-05-10T04:31:49.832Z,91.10
2023-05-10T04:34:38.212Z,92.50
2023-05-10T04:37:25.282Z,93.30
2023-05-10T04:40:12.713Z,93.70
2023-05-10T04:42:59.727Z,94.10
2023-05-10T04:45:47.150Z,94.40
2023-05-10T04:48:34.626Z,94.60
2023-05-10T04:51:21.910Z,94.60
2023-05-10T04:54:09.068Z,94.80
2023-05-10T04:56:56.112Z,94.50
2023-05-10T04:59:43.529Z,94.70
2023-05-10T05:02:30.756Z,94.80
2023-05-10T05:05:17.836Z,94.80
2023-05-10T05:08:05.068Z,94.70
2023-05-10T05:10:52.277Z,94.50
2023-05-10T05:13:39.741Z,94.30
2023-05-10T05:16:27.370Z,94.10
2023-05-10T05:19:14.514Z,93.70
2023-05-10T05:22:01.492Z,92.90
2023-05-10T05:24:48.549Z,92.30
2023-05-10T05:27:35.538Z,91.70
2023-05-10T05:30:22.543Z,91.30
2023-05-10T05:33:09.770Z,90.80
2023-05-10T05:35:56.835Z,89.70
2023-05-10T05:38:44.037Z,89.60
2023-05-10T05:41:31.011Z,89.00
2023-05-10T05:44:18.071Z,88.60
2023-05-10T05:47:05.276Z,88.40
2023-05-10T05:49:52.293Z,87.90
2023-05-10T05:52:39.334Z,87.20
2023-05-10T05:55:27.025Z,86.20
2023-05-10T05:58:14.090Z,85.90
2023-05-10T06:01:01.082Z,85.70
2023-05-10T06:03:49.043Z,86.80
2023-05-10T06:06:37.400Z,85.90
2023-05-10T06:09:25.512Z,85.90
2023-05-10T06:12:12.901Z,85.70
2023-05-10T06:14:59.965Z,86.10
2023-05-10T06:17:48.174Z,86.20
2023-05-10T06:20:35.326Z,86.10
2023-05-10T06:23:23.378Z,86.40
2023-05-10T06:26:10.745Z,86.90
2023-05-10T06:28:57.823Z,87.40
2023-05-10T06:31:44.953Z,88.10
2023-05-10T06:34:32.602Z,87.60
2023-05-10T06:37:19.667Z,87.40
2023-05-10T06:40:07.787Z,87.60
2023-05-10T06:42:54.863Z,87.80
2023-05-10T06:45:41.981Z,87.00
2023-05-10T06:48:29.130Z,87.20
2023-05-10T06:51:16.254Z,87.10
2023-05-10T06:54:04.005Z,87.10
2023-05-10T06:56:50.985Z,86.60
2023-05-10T06:59:38.141Z,86.80
2023-05-10T07:02:25.211Z,86.60
2023-05-10T07:05:12.790Z,87.00
2023-05-10T07:08:00.098Z,85.70
2023-05-10T07:10:47.105Z,85.70
2023-05-10T07:13:34.922Z,84.70
2023-05-10T07:16:22.514Z,84.00
2023-05-10T07:19:09.978Z,84.30
2023-05-10T07:21:57.069Z,83.80
2023-05-10T07:24:44.481Z,85.20
2023-05-10T07:27:31.551Z,84.00
2023-05-10T07:30:18.732Z,83.70
2023-05-10T07:33:05.878Z,84.40
2023-05-10T07:35:52.910Z,83.60
2023-05-10T07:38:41.141Z,84.00
2023-05-10T07:41:28.457Z,84.70
2023-05-10T07:44:15.490Z,84.80
2023-05-10T07:47:02.543Z,84.60
2023-05-10T07:49:49.734Z,85.10
2023-05-10T07:52:36.943Z,84.20
2023-05-10T07:55:24.009Z,84.40
2023-05-10T07:58:11.104Z,84.20
2023-05-10T08:00:58.118Z,85.00
2023-05-10T08:03:45.222Z,84.70
2023-05-10T08:06:32.432Z,84.20
2023-05-10T08:09:24.579Z,83.80
2023-05-10T08:12:11.674Z,82.50
2023-05-10T08:14:58.766Z,81.70
2023-05-10T08:17:45.872Z,82.40
2023-05-10T08:20:33.108Z,82.00
2023-05-10T08:23:20.125Z,80.80
2023-05-10T08:26:07.508Z,80.50
2023-05-10T08:28:54.512Z,80.30
2023-05-10T08:31:41.659Z,81.00
2023-05-10T08:34:28.720Z,80.20
2023-05-10T08:37:15.843Z,80.40
2023-05-10T08:40:03.890Z,79.70
2023-05-10T08:42:59.323Z,78.70
2023-05-10T08:45:47.900Z,78.60
2023-05-10T08:48:35.824Z,77.70
2023-05-10T08:51:27.799Z,78.50
2023-05-10T08:54:15.666Z,78.70
2023-05-10T08:57:02.977Z,78.20
2023-05-10T08:59:50.115Z,77.50
2023-05-10T09:02:38.320Z,76.60
2023-05-10T09:05:25.614Z,77.00
2023-05-10T09:08:13.966Z,76.80
2023-05-10T09:11:02.563Z,77.10
2023-05-10T09:13:53.046Z,76.90
2023-05-10T09:16:41.267Z,75.80
2023-05-10T09:19:29.094Z,75.10
2023-05-10T09:22:16.137Z,75.40
2023-05-10T09:25:09.522Z,75.30
2023-05-10T09:27:56.846Z,76.90
2023-05-10T09:30:43.994Z,73.40
2023-05-10T09:33:45.161Z,74.30
2023-05-10T09:36:32.224Z,75.30
2023-05-10T09:39:19.291Z,75.60
2023-05-10T09:42:08.024Z,75.50
2023-05-10T09:44:55.232Z,74.70
2023-05-10T09:47:42.272Z,74.00
2023-05-10T09:50:30.728Z,72.80
2023-05-10T09:53:17.897Z,71.30
2023-05-10T09:56:05.028Z,72.30
2023-05-10T09:59:04.010Z,71.40
2023-05-10T10:01:52.230Z,71.90
2023-05-10T10:04:42.757Z,72.00
2023-05-10T10:07:30.225Z,73.10
2023-05-10T10:10:17.550Z,73.80
2023-05-10T10:13:05.768Z,73.30
2023-05-10T10:15:55.216Z,71.10
2023-05-10T10:18:43.785Z,69.90
2023-05-10T10:21:31.823Z,69.20
2023-05-10T10:24:19.003Z,68.50
2023-05-10T10:27:13.613Z,67.30
2023-05-10T10:30:19.635Z,68.10
2023-05-10T10:33:39.919Z,68.10
2023-05-10T10:36:28.301Z,69.00
2023-05-10T10:39:15.956Z,66.20
2023-05-10T10:42:04.393Z,67.80
2023-05-10T10:45:15.072Z,67.20
2023-05-10T10:48:24.133Z,67.40
2023-05-10T10:51:12.924Z,66.10
2023-05-10T10:54:13.032Z,66.80
2023-05-10T10:57:14.507Z,66.90
2023-05-10T11:00:21.263Z,67.30
2023-05-10T11:03:14.368Z,69.80
2023-05-10T11:06:03.586Z,83.50
2023-05-10T11:08:53.661Z,91.70
2023-05-10T11:11:51.695Z,93.80
2023-05-10T11:14:38.785Z,94.60
2023-05-10T11:17:30.263Z,95.40
2023-05-10T11:20:23.844Z,95.50
2023-05-10T11:23:16.821Z,96.10
2023-05-10T11:26:04.015Z,96.10
2023-05-10T11:28:51.518Z,96.10
2023-05-10T11:31:47.498Z,95.90
2023-05-10T11:34:34.839Z,95.80
2023-05-10T11:37:21.967Z,95.50
2023-05-10T11:40:10.625Z,94.10
2023-05-10T11:42:57.762Z,92.00
2023-05-10T11:45:46.400Z,91.40
2023-05-10T11:48:33.660Z,86.10
2023-05-10T11:51:22.523Z,79.30
2023-05-10T11:54:11.044Z,79.30
2023-05-10T11:56:58.101Z,74.40
2023-05-10T11:59:45.098Z,75.20
2023-05-10T12:02:32.313Z,76.80
2023-05-10T12:05:19.853Z,76.40
2023-05-10T12:08:16.624Z,74.40
2023-05-10T12:11:08.730Z,74.50
2023-05-10T12:13:57.131Z,70.70
2023-05-10T12:16:44.642Z,71.50
2023-05-10T12:19:39.421Z,71.40
2023-05-10T12:22:26.685Z,70.00
2023-05-10T12:25:13.923Z,67.20
2023-05-10T12:28:04.256Z,68.70
2023-05-10T12:30:55.419Z,68.60
2023-05-10T12:33:44.319Z,67.30
2023-05-10T12:36:32.382Z,68.60
2023-05-10T12:39:19.364Z,67.30
2023-05-10T12:42:07.213Z,67.10
2023-05-10T12:44:58.156Z,66.70
2023-05-10T12:47:45.389Z,65.80
2023-05-10T12:50:32.460Z,66.30
2023-05-10T12:53:19.520Z,63.50
2023-05-10T12:56:07.090Z,63.20
2023-05-10T12:58:54.089Z,62.80
2023-05-10T13:01:41.370Z,62.00
2023-05-10T13:04:28.572Z,61.90
2023-05-10T13:07:15.747Z,63.50
2023-05-10T13:10:02.793Z,61.40
2023-05-10T13:12:49.931Z,62.80
2023-05-10T13:15:37.020Z,63.20
2023-05-10T13:18:25.175Z,63.70
2023-05-10T13:21:12.585Z,64.70
2023-05-10T13:23:59.810Z,65.00
2023-05-10T13:26:46.867Z,66.00
2023-05-10T13:29:33.857Z,64.60
2023-05-10T13:32:20.973Z,63.90
2023-05-10T13:35:08.757Z,64.30
2023-05-10T13:37:58.535Z,64.40
2023-05-10T13:40:45.965Z,63.60
2023-05-10T13:43:32.975Z,62.80
2023-05-10T13:46:20.365Z,63.40
2023-05-10T13:49:08.015Z,61.80
2023-05-10T13:51:55.038Z,62.50
2023-05-10T13:54:42.479Z,62.20
2023-05-10T13:57:31.142Z,63.00
2023-05-10T14:00:18.462Z,62.40
2023-05-10T14:03:06.337Z,64.10
2023-05-10T14:05:53.508Z,68.00
2023-05-10T14:08:41.028Z,72.00
2023-05-10T14:11:28.023Z,74.80
2023-05-10T14:14:18.136Z,76.40
2023-05-10T14:17:05.232Z,78.40
2023-05-10T14:19:53.073Z,85.80
2023-05-10T14:22:40.128Z,90.00
2023-05-10T14:25:27.203Z,89.90
2023-05-10T14:28:14.425Z,89.00
2023-05-10T14:31:01.462Z,85.10
2023-05-10T14:33:48.588Z,83.40
2023-05-10T14:36:35.605Z,83.30
2023-05-10T14:39:23.764Z,82.40
2023-05-10T14:42:11.030Z,81.60
2023-05-10T14:44:58.157Z,80.60
2023-05-10T14:47:45.370Z,80.70
2023-05-10T14:50:37.154Z,75.60
2023-05-10T14:53:24.537Z,74.60
2023-05-10T14:56:11.635Z,77.30
2023-05-10T14:58:58.681Z,77.10
2023-05-10T15:01:46.632Z,76.50
2023-05-10T15:04:34.407Z,78.20
2023-05-10T15:07:21.847Z,75.10
2023-05-10T15:10:09.533Z,76.80
2023-05-10T15:12:56.543Z,73.30
2023-05-10T15:15:43.616Z,74.30
2023-05-10T15:18:30.779Z,75.20
2023-05-10T15:21:18.476Z,75.40
2023-05-10T15:24:09.471Z,74.30
2023-05-10T15:26:56.458Z,72.80
2023-05-10T15:29:43.700Z,75.50
2023-05-10T15:32:30.977Z,76.20
2023-05-10T15:35:18.539Z,78.10
2023-05-10T15:38:05.742Z,80.10
2023-05-10T15:40:57.900Z,79.90
2023-05-10T15:43:44.956Z,80.30
2023-05-10T15:46:32.205Z,78.00
2023-05-10T15:49:19.224Z,79.60
2023-05-10T15:52:06.354Z,93.30
2023-05-10T15:54:53.404Z,95.40
2023-05-10T15:57:41.520Z,96.00
2023-05-10T16:00:28.873Z,96.50
2023-05-10T16:03:16.340Z,96.90
2023-05-10T16:06:03.863Z,97.10
2023-05-10T16:08:51.962Z,97.30
2023-05-10T16:11:39.939Z,97.60
2023-05-10T16:14:27.169Z,97.90
2023-05-10T16:17:15.260Z,98.00
2023-05-10T16:20:02.611Z,98.00
2023-05-10T16:22:49.914Z,98.20
2023-05-10T16:25:37.040Z,98.20
2023-05-10T16:28:24.055Z,98.30
2023-05-10T16:31:11.330Z,98.30
2023-05-10T16:33:58.314Z,98.40
2023-05-10T16:36:45.365Z,98.20
2023-05-10T16:39:32.387Z,98.30
2023-05-10T16:42:19.422Z,98.50
2023-05-10T16:45:07.672Z,98.50
2023-05-10T16:47:55.286Z,98.60
2023-05-10T16:50:45.461Z,98.60
2023-05-10T16:53:32.526Z,98.70
2023-05-10T16:56:21.686Z,98.80
2023-05-10T16:59:08.694Z,98.70
2023-05-10T17:01:55.880Z,98.80
2023-05-10T17:04:43.157Z,98.90
2023-05-10T17:07:30.335Z,98.90
2023-05-10T17:10:17.441Z,98.90
2023-05-10T17:13:04.519Z,98.90
2023-05-10T17:15:51.657Z,99.00
2023-05-10T17:18:38.889Z,99.00
2023-05-10T17:21:26.130Z,99.00
2023-05-10T17:24:14.225Z,99.10
2023-05-10T17:27:03.398Z,99.10
2023-05-10T17:29:50.558Z,99.10
2023-05-10T17:32:37.652Z,99.00
2023-05-10T17:35:24.734Z,99.10
2023-05-10T17:38:11.746Z,99.10
2023-05-10T17:40:58.763Z,99.10
2023-05-10T17:43:45.714Z,99.10
2023-05-10T17:46:32.845Z,99.20
2023-05-10T17:49:20.011Z,99.20
2023-05-10T17:52:07.557Z,99.10
2023-05-10T17:54:54.670Z,99.10
2023-05-10T17:57:41.706Z,99.00
2023-05-10T18:00:28.700Z,99.10
2023-05-10T18:03:16.302Z,99.20
2023-05-10T18:06:04.319Z,99.20
2023-05-10T18:08:51.667Z,99.10
2023-05-10T18:11:39.385Z,99.20
2023-05-10T18:14:39.959Z,99.20
2023-05-10T18:17:27.911Z,99.20
2023-05-10T18:20:14.956Z,99.30
2023-05-10T18:23:02.485Z,99.20
2023-05-10T18:25:49.681Z,99.20
2023-05-10T18:28:37.163Z,99.20
2023-05-10T18:31:24.669Z,99.20
2023-05-10T18:34:11.761Z,99.20
2023-05-10T18:36:59.557Z,99.30
2023-05-10T18:39:46.665Z,99.30
2023-05-10T18:42:33.980Z,99.30
2023-05-10T18:45:20.976Z,99.30
2023-05-10T18:48:08.052Z,99.30
2023-05-10T18:50:55.134Z,99.30
2023-05-10T18:53:42.470Z,99.20
2023-05-10T18:56:29.527Z,99.30
2023-05-10T18:59:16.647Z,99.30
2023-05-10T19:02:03.952Z,99.30
2023-05-10T19:04:50.964Z,99.30
2023-05-10T19:07:38.179Z,99.30
2023-05-10T19:10:25.326Z,99.40
2023-05-10T19:13:12.810Z,99.40
2023-05-10T19:16:13.950Z,99.40
2023-05-10T19:19:01.881Z,99.40
2023-05-10T19:21:49.059Z,99.40
2023-05-10T19:24:37.361Z,99.40
2023-05-10T19:27:24.477Z,99.40
2023-05-10T19:30:12.029Z,99.40
2023-05-10T19:32:59.235Z,99.40
2023-05-10T19:35:46.478Z,99.40
2023-05-10T19:38:34.044Z,99.40
2023-05-10T19:41:22.322Z,99.40
2023-05-10T19:44:09.391Z,99.40
2023-05-10T19:46:57.071Z,99.50
2023-05-10T19:49:44.517Z,99.50
2023-05-10T19:52:31.578Z,99.50
2023-05-10T19:55:30.052Z,99.50
2023-05-10T19:58:17.676Z,99.50
2023-05-10T20:01:07.411Z,99.50
2023-05-10T20:03:54.874Z,99.50
2023-05-10T20:06:41.967Z,99.50
2023-05-10T20:09:28.968Z,99.50
2023-05-10T20:12:15.970Z,99.50
2023-05-10T20:15:03.812Z,99.50
2023-05-10T20:17:52.890Z,99.50
2023-05-10T20:20:40.294Z,99.60
2023-05-10T20:23:27.655Z,99.60
2023-05-10T20:26:14.858Z,99.60
2023-05-10T20:29:02.036Z,99.60
2023-05-10T20:31:49.074Z,99.60
2023-05-10T20:34:36.186Z,99.70
2023-05-10T20:37:23.628Z,99.60
2023-05-10T20:40:11.039Z,99.60
2023-05-10T20:42:58.455Z,99.60
2023-05-10T20:45:45.514Z,99.70
2023-05-10T20:48:33.071Z,99.60
2023-05-10T20:51:20.442Z,99.60
2023-05-10T20:54:07.525Z,99.70
2023-05-10T20:56:54.642Z,99.60
2023-05-10T20:59:41.848Z,99.70
2023-05-10T21:02:29.191Z,99.60
2023-05-10T21:05:18.318Z,99.70
2023-05-10T21:08:05.667Z,99.70
2023-05-10T21:10:52.818Z,99.70
2023-05-10T21:13:39.852Z,99.70
2023-05-10T21:16:26.965Z,99.70
2023-05-10T21:19:13.985Z,99.70
2023-05-10T21:22:01.072Z,99.70
2023-05-10T21:24:48.290Z,99.70
2023-05-10T21:27:35.470Z,99.80
2023-05-10T21:30:23.283Z,99.70
2023-05-10T21:33:10.412Z,99.80
2023-05-10T21:35:57.483Z,99.80
2023-05-10T21:38:44.987Z,99.80
2023-05-10T21:41:31.956Z,99.80
2023-05-10T21:44:19.010Z,99.80
2023-05-10T21:47:06.050Z,99.90
2023-05-10T21:49:53.346Z,99.90
2023-05-10T21:52:40.392Z,99.90
2023-05-10T21:55:28.094Z,99.90
2023-05-10T21:58:15.147Z,99.90
2023-05-10T22:01:02.614Z,99.90
2023-05-10T22:03:49.791Z,99.90
2023-05-10T22:06:37.189Z,99.90
2023-05-10T22:09:25.253Z,99.90
2023-05-10T22:12:12.806Z,99.90
2023-05-10T22:17:53.927Z,99.90
2023-05-10T22:20:40.968Z,99.90
2023-05-10T22:23:28.054Z,99.90
2023-05-10T22:26:15.105Z,99.90
2023-05-10T22:29:03.000Z,99.90
2023-05-10T22:31:50.397Z,99.90
2023-05-10T22:34:37.369Z,99.90
2023-05-10T22:37:24.469Z,99.90
2023-05-10T22:40:12.165Z,99.90
2023-05-10T22:42:59.169Z,99.90
2023-05-10T22:45:46.379Z,99.90
2023-05-10T22:48:34.880Z,99.90
2023-05-10T22:51:22.041Z,99.90
2023-05-10T22:54:09.068Z,99.90
2023-05-10T22:56:56.673Z,99.90
2023-05-10T22:59:43.697Z,99.90
2023-05-10T23:02:31.577Z,99.90
2023-05-10T23:05:19.078Z,99.90
2023-05-10T23:08:06.426Z,99.90
2023-05-10T23:10:53.491Z,99.90
2023-05-10T23:13:40.891Z,99.90
2023-05-10T23:16:28.106Z,99.90
2023-05-10T23:19:15.205Z,99.90
2023-05-10T23:22:02.259Z,99.90
2023-05-10T23:24:49.369Z,99.90
2023-05-10T23:27:36.367Z,99.90
2023-05-10T23:30:23.372Z,99.90
2023-05-10T23:33:10.770Z,99.90
2023-05-10T23:35:57.851Z,99.90
2023-05-10T23:38:44.913Z,99.90
2023-05-10T23:41:31.930Z,99.90
2023-05-10T23:44:18.951Z,99.90
2023-05-10T23:47:06.154Z,99.90
2023-05-10T23:49:53.387Z,99.90
2023-05-10T23:52:40.418Z,99.90
2023-05-10T23:55:27.591Z,99.90
2023-05-10T23:58:14.706Z,99.90
